Local Weather (KHSI) Ticker

20 January 2022

2022/06/25 00:53 KHSI 250053Z AUTO 13012KT 10SM CLR 29/23 A2976 RMK AO2 SLP058 T02890228

Click below to find out what a METAR file is and how to read it:



Feature Requests: